Chilik Southeast Airfield

Jump to: basic info | weather | comments

Related pages: nearby airports | nearby navaids

Basic information (top)

Location: lon 43.223598, lat 78.732399, elev 4,497 ft / 1,371 m msl
Status: small_airport

Weather (top)

Current conditions for Almaty Airport 74nm (138km) W (rec'd 2014/04/24 11:30Z):

UAAA 241130Z 06007MPS 9999 SCT200 21/M07 Q1008 88CLRD65 NOSIG

Airport forecast for Almaty Airport 74nm (138km) W (rec'd 2014/04/24 12:18Z):

TAF TAF UAAA 241100Z 2412/2512 04006MPS 9999 BKN100 TX18/2508Z TN06/2501Z 
      TEMPO 2414/2502 16005MPS 1500 BR FU 
      BECMG 2502/2503 26005MPS SCT050CB BKN100 
      TEMPO 2506/2512 VRB15MPS 3000 TSRA SQ BKN010CB OVC100

Latest comments (top)

Spelling: OK oK its Kazakhstan♄, so you have a ... [read]

Airfield: I came across this airfield on Google, ... [read]

More... (top)

See also NOTAMs and nearby airports and navaids, or visit the Chilik Southeast Airfield page at the main OurAirports website..